Time;durP1;ratioP1;P1;durP2;ratioP2;P2;SDS_P1;SDS_P2;PMS_P1;PMS_P2;Temp;Humidity;BMP_temperature;BMP_pressure;BME280_temperature;BME280_humidity;BME280_pressure;Samples;Min_cycle;Max_cycle;Signal;HPM_P1;HPM_P2
2021/03/16 00:02:53;;;;;;;55.5;41.4;;;;;;;-2.49;100;97859.28;;;;
2021/03/16 00:12:50;;;;;;;69.9;49.3;;;;;;;-2.56;100;97864.72;;;;
2021/03/16 00:22:47;;;;;;;69.9;48.8;;;;;;;-2.54;100;97880.32;;;;
2021/03/16 00:32:44;;;;;;;76.9;52.4;;;;;;;-2.51;100;97868.48;;;;
2021/03/16 00:42:42;;;;;;;74.4;47.9;;;;;;;-2.48;100;97883.83;;;;
2021/03/16 00:52:38;;;;;;;76.1;56.9;;;;;;;-2.64;100;97885.44;;;;
2021/03/16 01:02:36;;;;;;;79.9;52.7;;;;;;;-2.67;100;97876.15;;;;
2021/03/16 01:12:34;;;;;;;77.2;51.7;;;;;;;-2.64;100;97874.89;;;;
2021/03/16 01:22:30;;;;;;;73.5;50.6;;;;;;;-2.75;100;97862.58;;;;
2021/03/16 01:32:28;;;;;;;80.3;49.3;;;;;;;-2.84;100;97867.44;;;;
2021/03/16 01:42:24;;;;;;;54.9;41.4;;;;;;;-2.96;100;97873.83;;;;
2021/03/16 01:52:21;;;;;;;54.2;38;;;;;;;-3.08;100;97853.61;;;;
2021/03/16 02:02:18;;;;;;;47.4;29.8;;;;;;;-3.03;100;97863.45;;;;
2021/03/16 02:12:15;;;;;;;44.5;33;;;;;;;-2.93;100;97871.52;;;;
2021/03/16 02:22:12;;;;;;;48.4;29.8;;;;;;;-3.13;100;97877.25;;;;
2021/03/16 02:32:09;;;;;;;48.6;33.8;;;;;;;-3.11;100;97874.36;;;;
2021/03/16 02:42:06;;;;;;;48.4;34.9;;;;;;;-2.92;100;97877.59;;;;
2021/03/16 02:52:03;;;;;;;57.3;44.5;;;;;;;-2.91;100;97887.08;;;;
2021/03/16 03:02:00;;;;;;;55.2;39.7;;;;;;;-2.87;100;97885.57;;;;
2021/03/16 03:11:57;;;;;;;53.6;40.4;;;;;;;-3.15;100;97868.77;;;;
2021/03/16 03:21:54;;;;;;;50.3;38.3;;;;;;;-2.89;100;97888.46;;;;
2021/03/16 03:31:52;;;;;;;53.8;42.4;;;;;;;-2.82;100;97899.66;;;;
2021/03/16 03:41:49;;;;;;;48.2;36.9;;;;;;;-2.77;100;97898.92;;;;
2021/03/16 03:51:46;;;;;;;49.7;36.7;;;;;;;-2.72;100;97899.02;;;;
2021/03/16 04:01:43;;;;;;;56.4;37.4;;;;;;;-2.8;100;97915.22;;;;
2021/03/16 04:11:40;;;;;;;51;36.3;;;;;;;-2.97;100;97928.38;;;;
2021/03/16 04:21:37;;;;;;;49.1;35;;;;;;;-3.05;100;97936.66;;;;
2021/03/16 04:31:35;;;;;;;51.9;33.6;;;;;;;-3.17;100;97934.09;;;;
2021/03/16 04:41:34;;;;;;;38.7;30;;;;;;;-3.22;100;97933.98;;;;
2021/03/16 04:51:29;;;;;;;40.1;29.5;;;;;;;-3.21;100;97942.69;;;;
2021/03/16 05:01:26;;;;;;;49.6;33.1;;;;;;;-3.12;100;97957.89;;;;
2021/03/16 05:11:23;;;;;;;50.5;35.9;;;;;;;-2.91;100;97963.53;;;;
2021/03/16 05:21:20;;;;;;;69.3;46.6;;;;;;;-2.65;100;97960.31;;;;
2021/03/16 05:31:17;;;;;;;68.2;45.8;;;;;;;-2.42;100;97965.44;;;;
2021/03/16 05:41:14;;;;;;;69.1;44.9;;;;;;;-2.2;100;97971.61;;;;
2021/03/16 05:51:11;;;;;;;63.7;47.6;;;;;;;-2.08;100;97982.88;;;;
2021/03/16 06:01:09;;;;;;;73.8;46.9;;;;;;;-1.9;100;97988.94;;;;
2021/03/16 06:11:07;;;;;;;72.6;45.1;;;;;;;-1.63;100;97993.29;;;;
2021/03/16 06:21:03;;;;;;;49.8;40.8;;;;;;;-1.3;100;97999.53;;;;
2021/03/16 06:31:00;;;;;;;44.6;37.4;;;;;;;-0.92;100;98025.11;;;;
2021/03/16 06:40:58;;;;;;;64.8;40.1;;;;;;;-0.33;100;98034.73;;;;
2021/03/16 06:50:55;;;;;;;56.7;43;;;;;;;-0.27;100;98046.95;;;;
2021/03/16 07:00:52;;;;;;;63.9;50.4;;;;;;;-0.17;100;98047.05;;;;
2021/03/16 07:10:50;;;;;;;60.2;44.9;;;;;;;0.12;100;98062.66;;;;
2021/03/16 07:20:47;;;;;;;59.9;52.1;;;;;;;0.56;100;98061.38;;;;
2021/03/16 07:30:45;;;;;;;84.7;58.8;;;;;;;0.97;100;98063.2;;;;
2021/03/16 07:40:42;;;;;;;86.7;63.6;;;;;;;1.56;99.36719;98081.49;;;;
2021/03/16 07:50:40;;;;;;;88.2;67;;;;;;;1.81;98.17188;98094.01;;;;
2021/03/16 08:00:38;;;;;;;98.6;76.4;;;;;;;1.93;98.86133;98098.03;;;;
2021/03/16 08:10:35;;;;;;;100.5;79.4;;;;;;;2.62;98.13867;98100.17;;;;
2021/03/16 08:20:35;;;;;;;114.8;85.1;;;;;;;3.25;96.14258;98112.02;;;;
2021/03/16 08:30:31;;;;;;;113.4;87;;;;;;;3.54;93.06055;98117.48;;;;
2021/03/16 08:40:29;;;;;;;103.2;85.2;;;;;;;3.74;91.91992;98124.6;;;;
2021/03/16 08:50:27;;;;;;;118.8;88.8;;;;;;;4;92.18555;98123.38;;;;
2021/03/16 09:00:25;;;;;;;82.6;64.6;;;;;;;4.33;91.11719;98135.17;;;;
2021/03/16 09:10:23;;;;;;;68.6;54.5;;;;;;;4.46;91.85254;98131.87;;;;
2021/03/16 09:20:21;;;;;;;73.7;53.1;;;;;;;4.48;90.21875;98138.52;;;;
2021/03/16 09:30:19;;;;;;;62.6;49.7;;;;;;;4.72;89.93555;98140.48;;;;
2021/03/16 09:40:17;;;;;;;58;44;;;;;;;4.91;88.47656;98144.83;;;;
2021/03/16 09:50:15;;;;;;;48.7;39.7;;;;;;;5.62;85.82031;98148.63;;;;
2021/03/16 10:00:13;;;;;;;48;39.5;;;;;;;5.18;85.90039;98152.3;;;;
2021/03/16 10:10:11;;;;;;;48.1;37.4;;;;;;;5.62;85.70996;98143.28;;;;
2021/03/16 10:20:09;;;;;;;47.7;41.2;;;;;;;6.71;82.51074;98144.68;;;;
2021/03/16 10:30:08;;;;;;;54;48.1;;;;;;;7.58;77.41504;98147.39;;;;
2021/03/16 10:40:06;;;;;;;60.5;46.8;;;;;;;7.84;77.27148;98137.75;;;;
2021/03/16 10:50:04;;;;;;;55.8;49.7;;;;;;;7.47;77.02637;98129.91;;;;
2021/03/16 11:00:03;;;;;;;67.3;53.6;;;;;;;6.79;79.7334;98125.27;;;;
2021/03/16 11:10:01;;;;;;;87.5;60.2;;;;;;;6.57;80.26367;98144.64;;;;
2021/03/16 11:19:59;;;;;;;69.4;55.7;;;;;;;6.88;79.89551;98136.09;;;;
2021/03/16 11:29:58;;;;;;;76.9;56;;;;;;;7.19;79.24805;98137.14;;;;
2021/03/16 11:39:56;;;;;;;65.6;51.9;;;;;;;7.72;76.91309;98121.36;;;;
2021/03/16 11:49:55;;;;;;;55.1;42;;;;;;;7.57;75.41797;98124.34;;;;
2021/03/16 11:59:53;;;;;;;43.4;37;;;;;;;7.56;75.24902;98118.22;;;;
2021/03/16 12:09:52;;;;;;;31.1;25.5;;;;;;;7.21;74.59277;98120.78;;;;
2021/03/16 12:19:50;;;;;;;21.7;17.6;;;;;;;7.86;70.88867;98118.66;;;;
2021/03/16 12:29:49;;;;;;;33.8;26.6;;;;;;;8.02;70.05078;98107.29;;;;
2021/03/16 12:39:47;;;;;;;47;36.7;;;;;;;7.9;72.98438;98114.28;;;;
2021/03/16 12:49:46;;;;;;;45.4;37.5;;;;;;;7.98;73.66016;98117.03;;;;
2021/03/16 12:59:44;;;;;;;52.5;33.7;;;;;;;8.04;73.8623;98113.16;;;;
2021/03/16 13:09:43;;;;;;;36.4;28.3;;;;;;;8.67;72.86426;98141.02;;;;
2021/03/16 13:19:41;;;;;;;38.5;18.9;;;;;;;6.63;78.64258;98148.02;;;;
2021/03/16 13:29:40;;;;;;;20.5;18.3;;;;;;;5.3;85.20117;98149.25;;;;
2021/03/16 13:39:38;;;;;;;19.5;13.4;;;;;;;4.96;85.55664;98160.02;;;;
2021/03/16 13:49:36;;;;;;;27.1;19.3;;;;;;;4.47;89.84082;98166.29;;;;
2021/03/16 13:59:36;;;;;;;59.2;43.8;;;;;;;4.34;90.58789;98161.56;;;;
2021/03/16 14:09:36;;;;;;;23.4;18.4;;;;;;;4.08;94.41602;98162.8;;;;
2021/03/16 14:19:31;;;;;;;22.1;17.2;;;;;;;4.39;94.49414;98158.87;;;;
2021/03/16 14:29:29;;;;;;;19.4;14.3;;;;;;;4.28;93.92871;98167.2;;;;
2021/03/16 14:39:27;;;;;;;19;17;;;;;;;4.27;95.19824;98168.3;;;;
2021/03/16 14:49:25;;;;;;;24.1;21.5;;;;;;;4.08;97.86133;98172.66;;;;
2021/03/16 14:59:23;;;;;;;32.6;25.9;;;;;;;3.9;99.61133;98161.56;;;;
2021/03/16 15:09:21;;;;;;;31.7;23.9;;;;;;;3.66;100;98168.6;;;;
2021/03/16 15:19:19;;;;;;;32.8;23;;;;;;;3.33;100;98171.92;;;;
2021/03/16 15:29:17;;;;;;;24.9;22.2;;;;;;;3.29;100;98192.97;;;;
2021/03/16 15:39:15;;;;;;;31.8;21.7;;;;;;;3.19;100;98195.66;;;;
2021/03/16 15:49:13;;;;;;;29.1;20.3;;;;;;;3.25;100;98197.23;;;;
2021/03/16 15:59:11;;;;;;;37.6;26.2;;;;;;;3.3;100;98199.06;;;;
2021/03/16 16:09:09;;;;;;;34.5;28.7;;;;;;;3.01;100;98201.53;;;;
2021/03/16 16:19:06;;;;;;;37.4;28.4;;;;;;;2.8;100;98210.58;;;;
2021/03/16 16:29:04;;;;;;;34.7;27;;;;;;;2.97;100;98222.56;;;;
2021/03/16 16:39:02;;;;;;;37.8;28.9;;;;;;;3.17;100;98234.24;;;;
2021/03/16 16:49:00;;;;;;;49.2;35.8;;;;;;;3.03;100;98244.64;;;;
2021/03/16 16:58:58;;;;;;;59.7;44.5;;;;;;;3.01;100;98254.77;;;;
2021/03/16 17:08:56;;;;;;;42.4;30.1;;;;;;;3.18;100;98275.79;;;;
2021/03/16 17:18:54;;;;;;;27.9;21.8;;;;;;;3.27;100;98285.63;;;;
2021/03/16 17:28:52;;;;;;;22.4;19.7;;;;;;;3.36;100;98297.36;;;;
2021/03/16 17:38:50;;;;;;;50.9;38;;;;;;;3.24;100;98331.44;;;;
2021/03/16 17:48:50;;;;;;;32.5;23.3;;;;;;;3.39;99.94531;98339.44;;;;
2021/03/16 17:58:46;;;;;;;27.1;22.1;;;;;;;3.47;99.38867;98343.44;;;;
2021/03/16 18:08:45;;;;;;;26.5;21;;;;;;;3.43;100;98342.38;;;;
2021/03/16 18:18:42;;;;;;;37.8;26.1;;;;;;;3.29;100;98344.77;;;;
2021/03/16 18:28:39;;;;;;;30.5;24.7;;;;;;;3.27;100;98338.89;;;;
2021/03/16 18:38:38;;;;;;;31;22;;;;;;;3.18;100;98356.47;;;;
2021/03/16 18:48:35;;;;;;;28.9;23.8;;;;;;;3.07;100;98360.19;;;;
2021/03/16 18:58:33;;;;;;;35;28;;;;;;;2.96;100;98343.39;;;;
2021/03/16 19:08:31;;;;;;;33.2;28.9;;;;;;;2.77;100;98344.97;;;;
2021/03/16 19:18:29;;;;;;;47.7;32.4;;;;;;;2.84;100;98345.52;;;;
2021/03/16 19:28:27;;;;;;;44.4;39.1;;;;;;;2.82;100;98354.8;;;;
2021/03/16 19:38:25;;;;;;;46.9;36.1;;;;;;;2.82;100;98350.28;;;;
2021/03/16 19:48:26;;;;;;;49.9;39;;;;;;;2.88;100;98361.76;;;;
2021/03/16 19:58:21;;;;;;;51.1;40.9;;;;;;;2.89;100;98368.66;;;;
2021/03/16 20:08:19;;;;;;;55.2;39.2;;;;;;;3.01;100;98367.38;;;;
2021/03/16 20:18:17;;;;;;;43.8;36.4;;;;;;;2.95;100;98365.74;;;;
2021/03/16 20:28:14;;;;;;;46.5;36.7;;;;;;;2.91;100;98374.53;;;;
2021/03/16 20:38:12;;;;;;;39.7;33.2;;;;;;;2.94;100;98385.45;;;;
2021/03/16 20:48:10;;;;;;;54;39.3;;;;;;;2.93;100;98399.02;;;;
2021/03/16 20:58:08;;;;;;;33.9;26.8;;;;;;;2.9;100;98396.88;;;;
2021/03/16 21:08:06;;;;;;;35.1;24.1;;;;;;;2.94;100;98398.77;;;;
2021/03/16 21:18:04;;;;;;;39.8;31.6;;;;;;;2.9;100;98397.69;;;;
2021/03/16 21:28:02;;;;;;;32.4;27.3;;;;;;;2.81;100;98395.8;;;;
2021/03/16 21:38:00;;;;;;;38.9;25.7;;;;;;;2.72;100;98394.69;;;;
2021/03/16 21:47:58;;;;;;;35.6;29.7;;;;;;;2.65;100;98399.45;;;;
2021/03/16 21:57:56;;;;;;;44.1;35.3;;;;;;;2.68;100;98394.41;;;;
2021/03/16 22:07:54;;;;;;;42.4;34.8;;;;;;;2.65;100;98402.11;;;;
2021/03/16 22:17:52;;;;;;;46.1;31.7;;;;;;;2.58;100;98407.68;;;;
2021/03/16 22:27:51;;;;;;;48.4;34.9;;;;;;;2.57;100;98398.09;;;;
2021/03/16 22:37:47;;;;;;;51.8;36.9;;;;;;;2.52;100;98409.53;;;;
2021/03/16 22:47:45;;;;;;;40.7;33.6;;;;;;;2.57;100;98399.97;;;;
2021/03/16 22:57:43;;;;;;;34;30.3;;;;;;;2.64;100;98400.53;;;;
2021/03/16 23:07:41;;;;;;;39.7;33.5;;;;;;;2.69;100;98401.34;;;;
2021/03/16 23:17:39;;;;;;;40;30.8;;;;;;;2.8;100;98402.18;;;;
2021/03/16 23:27:37;;;;;;;43.6;32.1;;;;;;;2.74;100;98397.91;;;;
2021/03/16 23:37:35;;;;;;;37.2;32.3;;;;;;;2.77;100;98397.38;;;;
2021/03/16 23:47:33;;;;;;;31.9;28.4;;;;;;;2.83;100;98399.8;;;;
2021/03/16 23:57:31;;;;;;;38.4;27.6;;;;;;;2.71;100;98404.53;;;;
